createdAt,value
2022-09-11T00:01:28.414Z,16.30
2022-09-11T00:03:56.566Z,16.30
2022-09-11T00:06:29.743Z,16.30
2022-09-11T00:09:02.619Z,16.30
2022-09-11T00:11:36.253Z,16.30
2022-09-11T00:14:03.765Z,16.30
2022-09-11T00:16:36.569Z,16.20
2022-09-11T00:19:07.447Z,16.20
2022-09-11T00:21:35.243Z,16.20
2022-09-11T00:24:03.353Z,16.20
2022-09-11T00:26:31.222Z,16.20
2022-09-11T00:28:58.552Z,16.10
2022-09-11T00:31:28.622Z,16.10
2022-09-11T00:33:56.792Z,16.10
2022-09-11T00:36:27.273Z,16.10
2022-09-11T00:38:55.851Z,16.10
2022-09-11T00:41:31.312Z,16.00
2022-09-11T00:44:02.615Z,16.00
2022-09-11T00:46:34.678Z,16.00
2022-09-11T00:49:11.599Z,16.00
2022-09-11T00:51:41.142Z,16.00
2022-09-11T00:54:12.431Z,16.00
2022-09-11T00:56:43.243Z,16.00
2022-09-11T00:59:12.498Z,15.90
2022-09-11T01:01:39.941Z,15.90
2022-09-11T01:04:08.767Z,15.90
2022-09-11T01:06:36.109Z,15.90
2022-09-11T01:09:04.740Z,15.90
2022-09-11T01:11:40.577Z,15.80
2022-09-11T01:14:27.927Z,15.80
2022-09-11T01:17:10.204Z,15.90
2022-09-11T01:20:16.228Z,15.80
2022-09-11T01:22:44.010Z,15.80
2022-09-11T01:25:52.856Z,15.80
2022-09-11T01:28:29.868Z,15.80
2022-09-11T01:31:02.473Z,15.80
2022-09-11T01:33:42.714Z,15.70
2022-09-11T01:36:28.835Z,15.70
2022-09-11T01:39:04.391Z,15.70
2022-09-11T01:41:53.414Z,15.70
2022-09-11T01:44:29.906Z,15.70
2022-09-11T01:46:57.750Z,15.70
2022-09-11T01:49:32.425Z,15.70
2022-09-11T01:52:03.377Z,15.70
2022-09-11T01:54:37.988Z,15.70
2022-09-11T01:57:09.724Z,15.60
2022-09-11T01:59:52.166Z,15.60
2022-09-11T02:02:26.078Z,15.60
2022-09-11T02:05:02.662Z,15.60
2022-09-11T02:07:46.382Z,15.60
2022-09-11T02:10:18.303Z,15.60
2022-09-11T02:12:55.368Z,15.60
2022-09-11T02:15:26.229Z,15.60
2022-09-11T02:17:53.499Z,15.50
2022-09-11T02:20:21.046Z,15.50
2022-09-11T02:22:49.084Z,15.50
2022-09-11T02:25:16.502Z,15.50
2022-09-11T02:27:43.911Z,15.40
2022-09-11T02:30:12.239Z,15.50
2022-09-11T02:32:42.859Z,15.40
2022-09-11T02:35:11.082Z,15.40
2022-09-11T02:38:05.761Z,15.40
2022-09-11T02:41:01.684Z,15.40
2022-09-11T02:43:58.787Z,15.40
2022-09-11T02:46:48.818Z,15.40
2022-09-11T02:49:37.500Z,15.40
2022-09-11T02:52:27.531Z,15.40
2022-09-11T02:55:07.497Z,15.40
2022-09-11T02:58:02.599Z,15.40
2022-09-11T03:00:30.155Z,15.30
2022-09-11T03:02:58.651Z,15.30
2022-09-11T03:05:26.037Z,15.30
2022-09-11T03:07:53.346Z,15.30
2022-09-11T03:10:21.054Z,15.30
2022-09-11T03:12:48.611Z,15.30
2022-09-11T03:15:17.460Z,15.30
2022-09-11T03:17:45.051Z,15.30
2022-09-11T03:20:12.877Z,15.30
2022-09-11T03:22:40.354Z,15.20
2022-09-11T03:25:08.179Z,15.20
2022-09-11T03:27:38.668Z,15.20
2022-09-11T03:30:07.415Z,15.20
2022-09-11T03:32:35.024Z,15.20
2022-09-11T03:35:02.531Z,15.20
2022-09-11T03:37:30.046Z,15.20
2022-09-11T03:39:57.415Z,15.20
2022-09-11T03:42:24.871Z,15.30
2022-09-11T03:44:52.340Z,15.20
2022-09-11T03:47:22.152Z,15.30
2022-09-11T03:49:49.497Z,15.30
2022-09-11T03:52:16.902Z,15.40
2022-09-11T03:54:44.316Z,15.40
2022-09-11T03:57:11.920Z,15.40
2022-09-11T03:59:39.555Z,15.40
2022-09-11T04:02:07.773Z,15.50
2022-09-11T04:04:36.897Z,15.50
2022-09-11T04:07:04.412Z,15.50
2022-09-11T04:09:31.834Z,15.50
2022-09-11T04:11:59.283Z,15.50
2022-09-11T04:14:26.679Z,15.50
2022-09-11T04:16:54.096Z,15.50
2022-09-11T04:19:22.849Z,15.60
2022-09-11T04:21:50.263Z,15.60
2022-09-11T04:24:17.659Z,15.50
2022-09-11T04:26:45.997Z,15.50
2022-09-11T04:29:13.773Z,15.50
2022-09-11T04:31:41.620Z,15.50
2022-09-11T04:34:09.614Z,15.50
2022-09-11T04:36:37.115Z,15.50
2022-09-11T04:39:04.749Z,15.50
2022-09-11T04:41:32.513Z,15.50
2022-09-11T04:44:04.728Z,15.50
2022-09-11T04:46:33.516Z,15.40
2022-09-11T04:49:02.285Z,15.40
2022-09-11T04:51:38.322Z,15.40
2022-09-11T04:54:06.511Z,15.40
2022-09-11T04:56:37.949Z,15.40
2022-09-11T04:59:09.682Z,15.40
2022-09-11T05:01:37.981Z,15.30
2022-09-11T05:04:06.333Z,15.30
2022-09-11T05:06:34.173Z,15.20
2022-09-11T05:09:04.364Z,15.20
2022-09-11T05:11:32.145Z,15.20
2022-09-11T05:14:00.098Z,15.20
2022-09-11T05:16:29.459Z,15.20
2022-09-11T05:18:58.225Z,15.10
2022-09-11T05:21:26.676Z,15.10
2022-09-11T05:23:57.788Z,15.00
2022-09-11T05:26:29.168Z,15.10
2022-09-11T05:28:58.841Z,15.00
2022-09-11T05:31:26.946Z,15.00
2022-09-11T05:33:59.104Z,15.10
2022-09-11T05:36:27.899Z,15.00
2022-09-11T05:38:55.318Z,15.00
2022-09-11T05:41:23.035Z,15.00
2022-09-11T05:43:51.500Z,15.00
2022-09-11T05:46:20.609Z,15.00
2022-09-11T05:48:48.256Z,14.90
2022-09-11T05:51:19.213Z,14.90
2022-09-11T05:53:46.644Z,15.00
2022-09-11T05:56:19.849Z,15.00
2022-09-11T05:58:48.849Z,15.00
2022-09-11T06:01:18.761Z,15.00
2022-09-11T06:03:49.375Z,15.00
2022-09-11T06:06:18.992Z,15.00
2022-09-11T06:08:47.875Z,15.00
2022-09-11T06:11:17.672Z,15.00
2022-09-11T06:13:46.473Z,15.00
2022-09-11T06:16:19.399Z,15.00
2022-09-11T06:18:51.089Z,15.00
2022-09-11T06:21:21.557Z,15.10
2022-09-11T06:23:52.676Z,15.10
2022-09-11T06:26:21.453Z,15.20
2022-09-11T06:28:48.888Z,15.20
2022-09-11T06:31:21.473Z,15.30
2022-09-11T06:33:50.113Z,15.30
2022-09-11T06:36:19.725Z,15.40
2022-09-11T06:38:51.802Z,15.40
2022-09-11T06:41:20.880Z,15.50
2022-09-11T06:43:49.313Z,15.50
2022-09-11T06:46:20.056Z,15.50
2022-09-11T06:48:49.703Z,15.50
2022-09-11T06:51:19.498Z,15.60
2022-09-11T06:53:48.644Z,15.60
2022-09-11T06:56:18.206Z,15.60
2022-09-11T06:58:46.831Z,15.70
2022-09-11T07:01:19.813Z,15.70
2022-09-11T07:03:53.151Z,15.80
2022-09-11T07:06:26.646Z,15.80
2022-09-11T07:09:00.792Z,15.80
2022-09-11T07:11:33.333Z,15.90
2022-09-11T07:14:02.712Z,15.90
2022-09-11T07:16:30.077Z,16.00
2022-09-11T07:18:58.262Z,16.00
2022-09-11T07:21:27.274Z,16.10
2022-09-11T07:23:56.930Z,16.10
2022-09-11T07:26:26.870Z,16.20
2022-09-11T07:28:56.116Z,16.20
2022-09-11T07:31:28.010Z,16.20
2022-09-11T07:33:57.047Z,16.30
2022-09-11T07:36:27.089Z,16.30
2022-09-11T07:38:55.070Z,16.30
2022-09-11T07:41:24.155Z,16.30
2022-09-11T07:43:56.980Z,16.20
2022-09-11T07:46:25.231Z,16.30
2022-09-11T07:48:54.760Z,16.30
2022-09-11T07:51:22.863Z,16.40
2022-09-11T07:53:52.479Z,16.40
2022-09-11T07:56:25.684Z,16.50
2022-09-11T07:58:57.676Z,16.50
2022-09-11T08:01:27.907Z,16.50
2022-09-11T08:04:00.452Z,16.60
2022-09-11T08:06:30.845Z,16.70
2022-09-11T08:09:00.867Z,16.80
2022-09-11T08:11:29.635Z,16.90
2022-09-11T08:13:57.439Z,16.90
2022-09-11T08:16:26.729Z,17.00
2022-09-11T08:18:54.771Z,17.00
2022-09-11T08:21:23.471Z,17.10
2022-09-11T08:23:51.340Z,17.20
2022-09-11T08:26:25.755Z,17.30
2022-09-11T08:28:54.874Z,17.30
2022-09-11T08:31:27.743Z,17.30
2022-09-11T08:33:56.141Z,17.30
2022-09-11T08:36:24.318Z,17.30
2022-09-11T08:38:52.635Z,17.30
2022-09-11T08:41:35.051Z,17.40
2022-09-11T08:44:39.390Z,17.40
2022-09-11T08:47:12.809Z,17.50
2022-09-11T08:49:47.983Z,17.70
2022-09-11T08:52:16.891Z,17.60
2022-09-11T08:54:47.623Z,17.60
2022-09-11T08:57:21.182Z,17.70
2022-09-11T09:00:18.913Z,17.80
2022-09-11T09:03:04.460Z,18.00
2022-09-11T09:05:42.358Z,18.10
2022-09-11T09:08:30.168Z,18.10
2022-09-11T09:11:14.300Z,18.20
2022-09-11T09:13:59.426Z,18.30
2022-09-11T09:16:50.372Z,18.40
2022-09-11T09:19:17.696Z,18.40
2022-09-11T09:22:06.521Z,18.50
2022-09-11T09:24:48.548Z,18.40
2022-09-11T09:27:24.840Z,18.40
2022-09-11T09:29:58.096Z,18.50
2022-09-11T09:32:31.326Z,18.50
2022-09-11T09:35:04.965Z,18.60
2022-09-11T09:37:33.690Z,18.70
2022-09-11T09:40:05.363Z,18.80
2022-09-11T09:42:47.568Z,19.00
2022-09-11T09:45:37.512Z,19.00
2022-09-11T09:48:07.520Z,19.00
2022-09-11T09:50:39.327Z,19.00
2022-09-11T09:53:45.169Z,19.10
2022-09-11T09:56:16.667Z,19.20
2022-09-11T09:59:14.244Z,19.20
2022-09-11T10:01:44.956Z,19.40
2022-09-11T10:04:17.022Z,19.50
2022-09-11T10:06:46.485Z,19.60
2022-09-11T10:09:29.519Z,19.70
2022-09-11T10:12:02.737Z,19.70
2022-09-11T10:17:38.488Z,19.70
2022-09-11T10:20:13.312Z,19.70
2022-09-11T10:22:40.747Z,19.80
2022-09-11T10:25:16.312Z,19.70
2022-09-11T10:27:56.374Z,19.70
2022-09-11T10:30:34.012Z,19.80
2022-09-11T10:33:05.332Z,19.70
2022-09-11T10:35:34.605Z,19.70
2022-09-11T10:38:19.670Z,19.80
2022-09-11T10:41:15.288Z,20.00
2022-09-11T10:44:04.447Z,20.10
2022-09-11T10:46:39.319Z,20.20
2022-09-11T10:49:06.642Z,20.40
2022-09-11T10:51:42.178Z,20.60
2022-09-11T10:54:20.273Z,20.70
2022-09-11T10:57:00.364Z,20.80
2022-09-11T10:59:54.370Z,20.90
2022-09-11T11:02:37.350Z,21.10
2022-09-11T11:05:32.033Z,21.20
2022-09-11T11:08:19.106Z,21.20
2022-09-11T11:11:14.738Z,21.10
2022-09-11T11:14:11.494Z,21.00
2022-09-11T11:17:13.299Z,21.10
2022-09-11T11:19:52.808Z,20.90
2022-09-11T11:22:36.399Z,21.00
2022-09-11T11:25:11.740Z,21.30
2022-09-11T11:27:57.680Z,21.80
2022-09-11T11:30:41.731Z,22.20
2022-09-11T11:33:14.621Z,22.10
2022-09-11T11:36:03.790Z,22.30
2022-09-11T11:38:51.669Z,22.80
2022-09-11T11:41:24.710Z,23.10
2022-09-11T11:43:54.133Z,23.00
2022-09-11T11:46:27.436Z,22.70
2022-09-11T11:49:11.027Z,22.50
2022-09-11T11:52:14.841Z,22.20
2022-09-11T11:54:50.066Z,21.90
2022-09-11T11:57:25.387Z,21.70
2022-09-11T11:59:58.926Z,21.60
2022-09-11T12:02:35.970Z,21.60
2022-09-11T12:05:20.617Z,21.70
2022-09-11T12:07:48.208Z,22.10
2022-09-11T12:10:33.409Z,22.60
2022-09-11T12:13:07.467Z,23.20
2022-09-11T12:15:36.790Z,23.20
2022-09-11T12:18:05.592Z,23.00
2022-09-11T12:20:41.174Z,22.70
2022-09-11T12:23:31.036Z,22.70
2022-09-11T12:26:22.799Z,23.30
2022-09-11T12:29:13.127Z,23.80
2022-09-11T12:31:49.410Z,23.60
2022-09-11T12:34:47.874Z,23.20
2022-09-11T12:37:26.683Z,22.80
2022-09-11T12:40:06.368Z,22.50
2022-09-11T12:42:33.758Z,22.10
2022-09-11T12:45:01.188Z,21.90
2022-09-11T12:47:56.076Z,21.70
2022-09-11T12:50:26.599Z,21.70
2022-09-11T12:53:02.172Z,21.70
2022-09-11T12:55:43.408Z,21.90
2022-09-11T12:58:19.754Z,22.40
2022-09-11T13:00:50.486Z,22.40
2022-09-11T13:03:19.213Z,22.20
2022-09-11T13:06:04.733Z,22.20
2022-09-11T13:08:39.563Z,22.20
2022-09-11T13:11:58.029Z,22.20
2022-09-11T13:14:28.201Z,22.10
2022-09-11T13:16:56.455Z,22.00
2022-09-11T13:19:31.513Z,22.00
2022-09-11T13:21:58.901Z,21.90
2022-09-11T13:24:30.261Z,22.00
2022-09-11T13:27:01.654Z,22.00
2022-09-11T13:29:31.365Z,22.00
2022-09-11T13:32:05.048Z,21.80
2022-09-11T13:34:36.458Z,21.70
2022-09-11T13:37:11.250Z,21.70
2022-09-11T13:39:45.919Z,21.70
2022-09-11T13:42:20.925Z,21.80
2022-09-11T13:45:01.793Z,21.80
2022-09-11T13:47:31.620Z,21.70
2022-09-11T13:50:06.518Z,21.80
2022-09-11T13:52:35.423Z,21.80
2022-09-11T13:55:27.069Z,22.00
2022-09-11T13:57:54.575Z,22.20
2022-09-11T14:00:37.102Z,22.10
2022-09-11T14:03:06.981Z,22.10
2022-09-11T14:05:36.739Z,22.40
2022-09-11T14:08:35.753Z,22.70
2022-09-11T14:11:11.226Z,22.90
2022-09-11T14:13:57.901Z,22.70
2022-09-11T14:16:36.409Z,22.70
2022-09-11T14:19:11.232Z,22.70
2022-09-11T14:21:41.193Z,22.40
2022-09-11T14:24:28.580Z,22.20
2022-09-11T14:26:59.261Z,22.10
2022-09-11T14:29:36.277Z,22.00
2022-09-11T14:32:28.460Z,22.10
2022-09-11T14:34:55.843Z,22.20
2022-09-11T14:37:24.900Z,22.30
2022-09-11T14:40:00.684Z,22.40
2022-09-11T14:42:30.804Z,22.60
2022-09-11T14:44:58.235Z,22.70
2022-09-11T14:47:28.623Z,22.60
2022-09-11T14:49:57.562Z,22.40
2022-09-11T14:52:27.640Z,22.20
2022-09-11T14:54:56.496Z,22.20
2022-09-11T14:57:28.930Z,22.20
2022-09-11T14:59:56.626Z,22.20
2022-09-11T15:02:26.374Z,22.20
2022-09-11T15:04:55.980Z,22.30
2022-09-11T15:07:24.835Z,22.20
2022-09-11T15:09:53.693Z,22.20
2022-09-11T15:12:22.221Z,22.10
2022-09-11T15:14:57.030Z,22.00
2022-09-11T15:17:31.672Z,22.00
2022-09-11T15:20:00.610Z,22.00
2022-09-11T15:22:28.776Z,22.00
2022-09-11T15:24:59.967Z,21.90
2022-09-11T15:27:28.220Z,21.90
2022-09-11T15:29:55.830Z,21.90
2022-09-11T15:32:23.245Z,21.80
2022-09-11T15:34:51.696Z,21.80
2022-09-11T15:37:19.061Z,21.80
2022-09-11T15:39:46.459Z,21.70
2022-09-11T15:42:13.838Z,21.70
2022-09-11T15:44:41.234Z,21.70
2022-09-11T15:47:09.262Z,21.70
2022-09-11T15:49:41.788Z,21.70
2022-09-11T15:52:10.054Z,21.70
2022-09-11T15:54:37.657Z,21.70
2022-09-11T15:57:05.297Z,21.70
2022-09-11T15:59:33.451Z,21.70
2022-09-11T16:02:00.923Z,21.70
2022-09-11T16:04:31.654Z,21.70
2022-09-11T16:06:59.343Z,21.70
2022-09-11T16:09:29.034Z,21.70
2022-09-11T16:11:56.935Z,21.70
2022-09-11T16:14:33.114Z,21.60
2022-09-11T16:17:03.110Z,21.60
2022-09-11T16:19:31.070Z,21.60
2022-09-11T16:22:01.114Z,21.60
2022-09-11T16:24:29.905Z,21.60
2022-09-11T16:26:57.444Z,21.60
2022-09-11T16:29:44.099Z,21.60
2022-09-11T16:32:28.097Z,21.50
2022-09-11T16:34:57.331Z,21.50
2022-09-11T16:37:25.945Z,21.40
2022-09-11T16:39:53.562Z,21.40
2022-09-11T16:42:21.741Z,21.30
2022-09-11T16:44:49.816Z,21.30
2022-09-11T16:47:18.073Z,21.30
2022-09-11T16:50:06.085Z,21.30
2022-09-11T16:52:33.792Z,21.20
2022-09-11T16:55:01.180Z,21.20
2022-09-11T16:57:28.716Z,21.10
2022-09-11T16:59:56.035Z,21.10
2022-09-11T17:02:23.384Z,21.00
2022-09-11T17:04:50.879Z,21.00
2022-09-11T17:07:18.595Z,20.90
2022-09-11T17:09:46.226Z,20.90
2022-09-11T17:12:13.843Z,20.90
2022-09-11T17:14:41.494Z,20.80
2022-09-11T17:17:09.154Z,20.80
2022-09-11T17:19:37.536Z,20.80
2022-09-11T17:22:05.231Z,20.70
2022-09-11T17:24:32.818Z,20.80
2022-09-11T17:27:00.875Z,20.70
2022-09-11T17:29:28.272Z,20.70
2022-09-11T17:32:16.894Z,20.60
2022-09-11T17:34:43.097Z,20.60
2022-09-11T17:37:10.636Z,20.60
2022-09-11T17:39:38.168Z,20.60
2022-09-11T17:42:11.055Z,20.50
2022-09-11T17:44:41.413Z,20.50
2022-09-11T17:47:11.048Z,20.50
2022-09-11T17:49:38.499Z,20.50
2022-09-11T17:52:06.077Z,20.50
2022-09-11T17:54:34.068Z,20.40
2022-09-11T17:57:01.818Z,20.40
2022-09-11T17:59:29.840Z,20.40
2022-09-11T18:01:59.875Z,20.30
2022-09-11T18:04:27.796Z,20.30
2022-09-11T18:06:55.188Z,20.30
2022-09-11T18:09:22.712Z,20.30
2022-09-11T18:11:53.884Z,20.20
2022-09-11T18:14:21.628Z,20.10
2022-09-11T18:16:50.356Z,20.10
2022-09-11T18:19:21.920Z,20.10
2022-09-11T18:21:50.607Z,20.00
2022-09-11T18:24:20.678Z,20.00
2022-09-11T18:26:56.094Z,20.00
2022-09-11T18:29:26.974Z,20.00
2022-09-11T18:31:54.725Z,19.90
2022-09-11T18:34:24.880Z,19.90
2022-09-11T18:36:52.583Z,19.90
2022-09-11T18:39:21.129Z,19.90
2022-09-11T18:41:49.984Z,19.80
2022-09-11T18:44:20.105Z,19.80
2022-09-11T18:46:48.715Z,19.80
2022-09-11T18:49:16.695Z,19.70
2022-09-11T18:51:44.119Z,19.70
2022-09-11T18:54:21.044Z,19.70
2022-09-11T18:56:49.967Z,19.70
2022-09-11T18:59:18.077Z,19.60
2022-09-11T19:01:45.647Z,19.60
2022-09-11T19:04:14.631Z,19.60
2022-09-11T19:06:42.076Z,19.50
2022-09-11T19:09:12.340Z,19.50
2022-09-11T19:11:40.311Z,19.50
2022-09-11T19:14:10.872Z,19.50
2022-09-11T19:16:39.499Z,19.50
2022-09-11T19:19:08.127Z,19.50
2022-09-11T19:21:37.846Z,19.40
2022-09-11T19:24:06.647Z,19.40
2022-09-11T19:26:40.100Z,19.40
2022-09-11T19:29:08.910Z,19.30
2022-09-11T19:31:39.297Z,19.30
2022-09-11T19:34:08.206Z,19.30
2022-09-11T19:36:36.032Z,19.20
2022-09-11T19:39:04.407Z,19.20
2022-09-11T19:41:34.374Z,19.20
2022-09-11T19:44:03.033Z,19.10
2022-09-11T19:46:32.477Z,19.10
2022-09-11T19:49:03.106Z,19.10
2022-09-11T19:51:32.909Z,19.10
2022-09-11T19:54:02.750Z,19.00
2022-09-11T19:56:32.036Z,18.90
2022-09-11T19:59:00.464Z,18.90
2022-09-11T20:01:29.862Z,18.90
2022-09-11T20:04:00.488Z,18.80
2022-09-11T20:06:34.686Z,18.80
2022-09-11T20:11:51.954Z,18.70
2022-09-11T20:14:19.306Z,18.70
2022-09-11T20:16:46.690Z,18.70
2022-09-11T20:19:15.097Z,18.60
2022-09-11T20:21:42.871Z,18.60
2022-09-11T20:24:10.386Z,18.70
2022-09-11T20:26:37.928Z,18.60
2022-09-11T20:29:08.243Z,18.60
2022-09-11T20:31:46.508Z,18.60
2022-09-11T20:34:16.671Z,18.50
2022-09-11T20:36:44.411Z,18.50
2022-09-11T20:39:15.874Z,18.40
2022-09-11T20:41:43.984Z,18.40
2022-09-11T20:44:12.060Z,18.40
2022-09-11T20:46:39.590Z,18.40
2022-09-11T20:49:07.042Z,18.40
2022-09-11T20:51:34.914Z,18.40
2022-09-11T20:54:02.729Z,18.30
2022-09-11T20:56:30.167Z,18.30
2022-09-11T20:58:57.724Z,18.30
2022-09-11T21:01:27.134Z,18.30
2022-09-11T21:03:56.569Z,18.20
2022-09-11T21:06:26.681Z,18.20
2022-09-11T21:08:56.513Z,18.20
2022-09-11T21:11:31.789Z,18.10
2022-09-11T21:14:00.535Z,18.10
2022-09-11T21:16:29.118Z,18.20
2022-09-11T21:18:59.445Z,18.10
2022-09-11T21:21:29.525Z,18.10
2022-09-11T21:24:02.044Z,18.10
2022-09-11T21:26:30.893Z,18.00
2022-09-11T21:29:00.758Z,18.00
2022-09-11T21:31:28.444Z,18.00
2022-09-11T21:33:56.348Z,17.90
2022-09-11T21:36:23.914Z,17.90
2022-09-11T21:38:51.744Z,17.90
2022-09-11T21:41:19.348Z,17.90
2022-09-11T21:43:47.469Z,17.90
2022-09-11T21:46:15.143Z,17.90
2022-09-11T21:48:42.603Z,17.80
2022-09-11T21:51:16.247Z,17.80
2022-09-11T21:53:46.041Z,17.80
2022-09-11T21:56:19.826Z,17.80
2022-09-11T21:58:48.779Z,17.70
2022-09-11T22:01:16.261Z,17.70
2022-09-11T22:03:44.001Z,17.70
2022-09-11T22:06:12.508Z,17.70
2022-09-11T22:08:41.284Z,17.60
2022-09-11T22:11:09.791Z,17.60
2022-09-11T22:13:37.913Z,17.60
2022-09-11T22:16:08.439Z,17.50
2022-09-11T22:18:37.723Z,17.50
2022-09-11T22:21:05.662Z,17.50
2022-09-11T22:23:33.633Z,17.50
2022-09-11T22:26:23.571Z,17.50
2022-09-11T22:28:51.818Z,17.50
2022-09-11T22:31:22.221Z,17.40
2022-09-11T22:33:49.824Z,17.40
2022-09-11T22:36:20.281Z,17.40
2022-09-11T22:38:48.691Z,17.40
2022-09-11T22:41:17.236Z,17.40
2022-09-11T22:43:44.991Z,17.40
2022-09-11T22:46:12.566Z,17.40
2022-09-11T22:48:40.108Z,17.40
2022-09-11T22:51:07.547Z,17.50
2022-09-11T22:53:35.052Z,17.50
2022-09-11T22:56:02.662Z,17.50
2022-09-11T22:58:30.692Z,17.50
2022-09-11T23:01:00.878Z,17.50
2022-09-11T23:03:28.348Z,17.40
2022-09-11T23:06:19.420Z,17.40
2022-09-11T23:08:47.218Z,17.40
2022-09-11T23:11:17.139Z,17.40
2022-09-11T23:13:44.972Z,17.40
2022-09-11T23:16:15.366Z,17.30
2022-09-11T23:18:43.373Z,17.30
2022-09-11T23:21:11.624Z,17.20
2022-09-11T23:23:43.487Z,17.20
2022-09-11T23:26:12.905Z,17.20
2022-09-11T23:28:40.654Z,17.20
2022-09-11T23:31:18.198Z,17.20
2022-09-11T23:33:46.376Z,17.20
2022-09-11T23:36:15.714Z,17.20
2022-09-11T23:38:47.278Z,17.20
2022-09-11T23:41:15.872Z,17.20
2022-09-11T23:43:43.389Z,17.20
2022-09-11T23:46:11.910Z,17.10
2022-09-11T23:48:40.105Z,17.10
2022-09-11T23:51:10.477Z,17.10
2022-09-11T23:53:39.880Z,17.10
2022-09-11T23:56:07.960Z,17.10
2022-09-11T23:58:45.788Z,17.10
